CDT,Max TemperatureF,Mean TemperatureF,Min TemperatureF,Max Dew PointF,MeanDew PointF,Min DewpointF,Max Humidity, Mean Humidity, Min Humidity, Max Sea Level PressureIn, Mean Sea Level PressureIn, Min Sea Level PressureIn, Max VisibilityMiles, Mean VisibilityMiles, Min VisibilityMiles, Max Wind SpeedMPH, Mean Wind SpeedMPH, Max Gust SpeedMPH,PrecipitationIn, CloudCover, Events, WindDirDegrees
2013-9-1,89,81,73,76,72,69,94,81,65,29.94,29.90,29.88,10,10,8,16,3,21,0.00,2,Rain-Thunderstorm,300
2013-9-2,88,80,73,77,72,68,94,78,62,30.00,29.95,29.90,10,10,5,14,4,21,0.15,3,Rain-Thunderstorm,265
2013-9-3,88,80,73,77,73,70,94,84,66,30.00,29.95,29.89,10,10,6,13,4,,0.00,3,Rain-Thunderstorm,323
2013-9-4,88,79,71,76,73,70,94,78,63,30.09,30.04,29.97,10,10,10,13,4,,0.01,1,,105
2013-9-5,88,80,73,75,73,70,94,75,58,30.13,30.08,30.04,10,10,9,10,4,,0.02,1,Rain,346
2013-9-6,90,81,72,73,69,66,91,68,46,30.10,30.05,29.99,10,10,10,8,4,,0.00,1,Rain,19
2013-9-7,88,80,71,73,69,66,89,73,52,30.06,30.01,29.98,10,10,10,13,6,,0.00,1,Rain,49
2013-9-8,90,80,70,71,68,65,92,65,44,30.01,29.97,29.93,10,10,10,10,5,,0.00,0,Rain,285
2013-9-9,91,80,70,72,68,64,88,66,41,30.05,30.02,29.97,10,10,10,12,5,,0.00,2,Rain,24
2013-9-10,88,80,72,73,70,68,89,72,49,30.13,30.08,30.03,10,9,2,13,5,,0.00,2,Rain,81
2013-9-11,91,82,73,72,68,66,86,63,43,30.14,30.07,30.03,10,10,10,13,7,,0.00,1,,60
2013-9-12,88,81,74,72,70,68,86,66,53,30.05,30.00,29.92,10,10,10,13,6,,0.00,1,Rain,90
2013-9-13,92,80,70,71,68,63,89,61,38,29.93,29.89,29.82,10,10,10,12,5,,0.00,1,,312
2013-9-14,88,80,71,70,68,64,88,65,49,30.00,29.92,29.85,10,10,10,8,4,,0.00,2,Rain,28
2013-9-15,88,78,68,73,69,62,86,64,55,30.07,30.03,29.99,10,10,10,10,7,,0.00,0,Rain,124
2013-9-16,89,81,73,75,72,70,90,76,59,30.09,30.05,30.01,10,10,9,12,5,,0.00,3,Rain-Thunderstorm,24
2013-9-17,90,80,72,74,71,69,90,72,51,30.08,30.04,29.99,10,9,1,15,7,20,0.48,3,Rain-Thunderstorm,89
2013-9-18,88,80,73,72,70,68,90,73,51,30.10,30.05,30.01,10,10,7,16,9,21,0.00,4,Rain,92
2013-9-19,85,80,74,72,68,64,76,63,54,30.09,30.04,30.00,10,10,10,15,9,20,0.00,0,Rain,123
2013-9-20,88,80,72,75,73,67,86,74,60,30.03,29.96,29.88,10,10,8,18,9,22,0.02,3,Rain,123
2013-9-21,82,78,73,74,72,70,94,83,70,29.87,29.80,29.73,10,8,1,17,10,26,0.48,5,Rain-Thunderstorm,169
2013-9-22,80,74,69,73,70,68,94,87,74,29.81,29.76,29.72,10,10,6,13,7,,0.13,6,Rain,35
2013-9-23,85,80,73,75,73,70,94,81,62,29.89,29.85,29.77,10,9,2,12,6,,0.67,6,Rain,82
2013-9-24,83,78,72,75,73,70,94,86,70,29.91,29.85,29.78,10,9,0,26,7,34,1.55,6,Fog-Rain-Thunderstorm,82
2013-9-25,88,79,71,76,72,67,94,78,51,29.82,29.78,29.74,10,10,10,10,4,,0.00,4,Rain,358
2013-9-26,86,77,68,71,67,63,92,73,54,29.97,29.89,29.82,10,10,10,10,6,,0.00,0,,32
2013-9-27,84,74,64,63,61,58,89,62,42,30.05,30.00,29.95,10,10,10,13,7,21,0.00,0,Rain,52
2013-9-28,84,73,62,63,60,57,82,62,42,30.09,30.05,30.01,10,10,10,15,7,18,0.00,1,,49
2013-9-29,81,72,62,66,61,55,88,67,53,30.06,30.02,29.96,10,10,10,13,7,,0.00,2,Rain,82
2013-9-30,83,75,66,70,66,61,88,72,52,30.00,29.97,29.93,10,10,10,8,5,,0.03,6,Rain,80